All City Stadium (Denver), Colorado
Current Conditions -  °F | °C
As of 4:53 PM on Tuesday 25 Nov 2014 (Local Time) from KAPA Reporting Station
Broken Clouds Broken Clouds  
Wind Chill: 35°   Ceiling: 20000
Heat Index: 43°   Visibility: 10mi
Dew Point: 20°   Wind: 18mph
Humidity: 40%   Direction: 330°NNW
Pressure: 29.94"   Gusts: 28mph
Location:  39.69109°N, 104.9663°W
Report Text: KAPA 252353Z 33016G24KT 10SM FEW100 SCT140 BKN200 06/M07 A2994 RMK AO2 PK WND 32032/2310 SLP154 T00611067 10078 20050 53015
Loading
Personal Weather Stations






























Interactive Weather Map New forecast layout! Learn more

10-Day Weather Forecast

Advertisements
Track Severe Weather on mobile